Weather at Al Massira Airport

Public forecast

Using degrees Celsius for public forecast. Weather courtesy of forecast.io.

Current aviation weather report (METAR) for Al Massira Airport

Report is more than 6 hours old.

2022/11/14 15:30 (retrieved 2 years ago)

GMAD 141530Z 29003KT 230V020 9999 FEW033 33/M01 Q1018 NOSIG

Aviation forecast (TAF) for Al Massira Airport

Forecast is more than 12 hours old.

2023/02/22 18:18 (retrieved 1 year ago)

TAF GMAD 221700Z 2218/2324 27009KT 8000 NSC TEMPO 2205/2209 2000 BR BKN010